createdAt,value
2022-09-28T00:01:54.282Z,99550.38
2022-09-28T00:07:16.009Z,99552.91
2022-09-28T00:12:38.225Z,99555.34
2022-09-28T00:18:00.554Z,99560.47
2022-09-28T00:23:22.307Z,99563.41
2022-09-28T00:28:44.002Z,99564.25
2022-09-28T00:34:06.325Z,99552.44
2022-09-28T00:39:30.781Z,99549.53
2022-09-28T00:44:53.033Z,99546.19
2022-09-28T00:50:22.660Z,99545.53
2022-09-28T00:55:46.502Z,99535.53
2022-09-28T01:01:08.409Z,99537.84
2022-09-28T01:06:32.967Z,99527.28
2022-09-28T01:11:54.884Z,99531.47
2022-09-28T01:17:18.651Z,99522.66
2022-09-28T01:23:19.570Z,99477.75
2022-09-28T01:28:43.537Z,99520.38
2022-09-28T01:34:11.603Z,99507.66
2022-09-28T01:39:35.813Z,99523.06
2022-09-28T01:45:04.671Z,99532.84
2022-09-28T01:50:28.185Z,99528.56
2022-09-28T01:55:54.119Z,99529.13
2022-09-28T02:01:19.271Z,99527.72
2022-09-28T02:06:45.192Z,99525.44
2022-09-28T02:12:10.858Z,99527.81
2022-09-28T02:17:33.664Z,99513.16
2022-09-28T02:22:56.376Z,99519.19
2022-09-28T02:28:18.610Z,99512.78
2022-09-28T02:33:42.437Z,99527.31
2022-09-28T02:39:04.284Z,99531.91
2022-09-28T02:44:39.589Z,99521.78
2022-09-28T02:50:13.040Z,99536.41
2022-09-28T02:55:45.734Z,99535.75
2022-09-28T03:01:17.974Z,99533.59
2022-09-28T03:06:44.835Z,99543.22
2022-09-28T03:12:09.182Z,99549.09
2022-09-28T03:17:31.026Z,99547.22
2022-09-28T03:23:12.735Z,99548.66
2022-09-28T03:28:35.767Z,99542.66
2022-09-28T03:33:57.821Z,99536.84
2022-09-28T03:39:20.317Z,99545.50
2022-09-28T03:44:41.983Z,99548.34
2022-09-28T03:50:04.272Z,99556.38
2022-09-28T03:55:26.554Z,99550.56
2022-09-28T04:00:49.298Z,99551.78
2022-09-28T04:06:11.432Z,99557.66
2022-09-28T04:11:47.581Z,99542.94
2022-09-28T04:17:15.782Z,99554.00
2022-09-28T04:22:37.657Z,99553.28
2022-09-28T04:28:18.777Z,99546.38
2022-09-28T04:33:40.529Z,99528.56
2022-09-28T04:39:02.240Z,99548.28
2022-09-28T04:44:26.512Z,99549.38
2022-09-28T04:49:53.575Z,99553.00
2022-09-28T04:55:21.186Z,99549.88
2022-09-28T05:00:43.531Z,99561.78
2022-09-28T05:06:31.380Z,99556.72
2022-09-28T05:12:03.587Z,99570.38
2022-09-28T05:17:25.920Z,99573.34
2022-09-28T05:23:06.426Z,99572.50
2022-09-28T05:28:30.274Z,99578.72
2022-09-28T05:34:11.035Z,99577.88
2022-09-28T05:39:33.176Z,99574.41
2022-09-28T05:44:54.883Z,99567.13
2022-09-28T05:50:17.524Z,99567.81
2022-09-28T05:55:39.330Z,99564.41
2022-09-28T06:01:01.255Z,99563.00
2022-09-28T06:06:25.328Z,99562.56
2022-09-28T06:11:47.791Z,99563.00
2022-09-28T06:17:19.434Z,99570.31
2022-09-28T06:22:51.408Z,99565.34
2022-09-28T06:28:14.301Z,99581.72
2022-09-28T06:33:37.872Z,99590.31
2022-09-28T06:39:01.227Z,99591.53
2022-09-28T06:44:24.428Z,99612.88
2022-09-28T06:50:17.084Z,99609.44
2022-09-28T06:55:52.659Z,99608.81
2022-09-28T07:01:14.360Z,99616.97
2022-09-28T07:06:46.838Z,99610.69
2022-09-28T07:12:27.330Z,99611.59
2022-09-28T07:18:02.191Z,99620.28
2022-09-28T07:23:26.789Z,99616.69
2022-09-28T07:29:21.600Z,99619.50
2022-09-28T07:35:09.352Z,99625.97
2022-09-28T07:40:57.108Z,99623.88
2022-09-28T07:46:20.496Z,99631.94
2022-09-28T07:51:53.447Z,99635.94
2022-09-28T07:57:24.351Z,99638.47
2022-09-28T08:02:59.605Z,99641.34
2022-09-28T08:08:23.238Z,99654.69
2022-09-28T08:13:45.853Z,99644.47
2022-09-28T08:19:19.049Z,99656.72
2022-09-28T08:24:41.984Z,99658.19
2022-09-28T08:30:04.581Z,99662.88
2022-09-28T08:35:34.835Z,99672.06
2022-09-28T08:41:18.972Z,99677.81
2022-09-28T08:46:59.668Z,99652.69
2022-09-28T08:52:39.457Z,99677.66
2022-09-28T08:58:35.730Z,99686.84
2022-09-28T09:03:57.705Z,99696.63
2022-09-28T09:09:38.780Z,99693.38
2022-09-28T09:15:21.435Z,99695.75
2022-09-28T09:20:47.918Z,99694.50
2022-09-28T09:26:24.896Z,99688.03
2022-09-28T09:32:03.221Z,99680.66
2022-09-28T09:37:35.666Z,99687.66
2022-09-28T09:43:39.825Z,99696.69
2022-09-28T09:49:24.287Z,99704.97
2022-09-28T09:54:48.929Z,99694.22
2022-09-28T10:00:26.431Z,99698.59
2022-09-28T10:06:06.441Z,99689.13
2022-09-28T10:11:32.287Z,99692.91
2022-09-28T10:16:56.841Z,99696.34
2022-09-28T10:22:39.462Z,99691.34
2022-09-28T10:28:06.714Z,99689.22
2022-09-28T10:33:30.717Z,99682.03
2022-09-28T10:38:53.276Z,99697.06
2022-09-28T10:44:25.359Z,99709.09
2022-09-28T10:49:58.145Z,99704.81
2022-09-28T10:55:29.841Z,99705.53
2022-09-28T11:00:52.697Z,99702.69
2022-09-28T11:06:27.593Z,99704.97
2022-09-28T11:11:51.201Z,99706.94
2022-09-28T11:17:19.751Z,99695.84
2022-09-28T11:22:46.594Z,99711.16
2022-09-28T11:28:19.284Z,99702.75
2022-09-28T11:33:46.353Z,99706.50
2022-09-28T11:39:35.093Z,99711.06
2022-09-28T11:45:05.989Z,99715.00
2022-09-28T11:50:34.023Z,99701.72
2022-09-28T11:56:09.039Z,99724.06
2022-09-28T12:01:36.501Z,99716.75
2022-09-28T12:07:12.531Z,99717.19
2022-09-28T12:12:40.635Z,99722.47
2022-09-28T12:18:09.241Z,99722.75
2022-09-28T12:23:35.806Z,99722.03
2022-09-28T12:29:03.438Z,99718.75
2022-09-28T12:34:26.646Z,99721.00
2022-09-28T12:40:07.563Z,99721.31
2022-09-28T12:46:07.060Z,99712.09
2022-09-28T12:51:41.439Z,99704.78
2022-09-28T12:57:16.851Z,99694.34
2022-09-28T13:02:58.796Z,99693.31
2022-09-28T13:08:26.038Z,99682.38
2022-09-28T13:13:54.295Z,99691.06
2022-09-28T13:19:26.797Z,99690.69
2022-09-28T13:24:51.399Z,99689.81
2022-09-28T13:30:15.495Z,99688.81
2022-09-28T13:35:44.225Z,99703.63
2022-09-28T13:41:12.942Z,99688.72
2022-09-28T13:46:42.133Z,99685.06
2022-09-28T13:52:10.438Z,99677.91
2022-09-28T13:57:44.283Z,99682.19
2022-09-28T14:03:14.958Z,99685.31
2022-09-28T14:08:41.176Z,99691.63
2022-09-28T14:14:07.545Z,99696.56
2022-09-28T14:19:33.825Z,99704.56
2022-09-28T14:25:06.785Z,99720.81
2022-09-28T14:30:46.657Z,99726.75
2022-09-28T14:36:43.658Z,99704.03
2022-09-28T14:42:15.225Z,99721.03
2022-09-28T14:47:41.703Z,99713.25
2022-09-28T14:53:05.881Z,99730.38
2022-09-28T14:58:32.457Z,99728.78
2022-09-28T15:03:56.759Z,99726.75
2022-09-28T15:09:29.329Z,99729.34
2022-09-28T15:14:56.380Z,99714.84
2022-09-28T15:20:24.779Z,99717.53
2022-09-28T15:25:52.710Z,99716.66
2022-09-28T15:31:20.901Z,99726.41
2022-09-28T15:36:46.458Z,99747.03
2022-09-28T15:42:09.657Z,99762.84
2022-09-28T15:47:34.107Z,99772.25
2022-09-28T15:53:00.662Z,99785.47
2022-09-28T15:58:24.772Z,99801.34
2022-09-28T16:03:49.258Z,99799.34
2022-09-28T16:09:41.047Z,99810.69
2022-09-28T16:15:07.670Z,99798.75
2022-09-28T16:20:35.532Z,99798.69
2022-09-28T16:26:00.541Z,99799.88
2022-09-28T16:31:29.673Z,99804.19
2022-09-28T16:36:54.203Z,99804.69
2022-09-28T16:42:17.441Z,99810.63
2022-09-28T16:47:40.612Z,99812.69
2022-09-28T16:53:34.111Z,99822.31
2022-09-28T16:58:57.430Z,99825.41
2022-09-28T17:04:20.489Z,99829.09
2022-09-28T17:09:45.312Z,99834.75
2022-09-28T17:15:09.058Z,99834.72
2022-09-28T17:20:33.081Z,99841.53
2022-09-28T17:25:58.955Z,99839.00
2022-09-28T17:31:22.154Z,99829.88
2022-09-28T17:36:45.894Z,99838.50
2022-09-28T17:42:10.267Z,99836.75
2022-09-28T17:47:34.393Z,99843.97
2022-09-28T17:52:59.815Z,99853.72
2022-09-28T17:58:24.431Z,99850.94
2022-09-28T18:03:47.608Z,99861.88
2022-09-28T18:09:12.339Z,99853.03
2022-09-28T18:14:36.835Z,99846.78
2022-09-28T18:19:59.957Z,99861.75
2022-09-28T18:25:23.182Z,99855.59
2022-09-28T18:30:47.737Z,99863.38
2022-09-28T18:36:10.870Z,99853.56
2022-09-28T18:41:34.187Z,99859.00
2022-09-28T18:46:58.698Z,99859.84
2022-09-28T18:52:21.817Z,99869.19
2022-09-28T18:57:46.360Z,99867.31
2022-09-28T19:03:14.321Z,99866.19
2022-09-28T19:08:37.578Z,99869.72
2022-09-28T19:14:00.658Z,99874.94
2022-09-28T19:19:25.076Z,99865.28
2022-09-28T19:24:48.075Z,99865.34
2022-09-28T19:30:12.031Z,99860.34
2022-09-28T19:35:36.463Z,99863.16
2022-09-28T19:40:59.764Z,99863.28
2022-09-28T19:46:22.861Z,99864.16
2022-09-28T19:52:11.426Z,99872.13
2022-09-28T19:57:32.796Z,99877.63
2022-09-28T20:02:56.536Z,99870.97
2022-09-28T20:08:21.841Z,99866.53
2022-09-28T20:13:45.298Z,99870.19
2022-09-28T20:19:08.523Z,99877.66
2022-09-28T20:24:33.542Z,99871.75
2022-09-28T20:29:56.598Z,99879.63
2022-09-28T20:35:32.170Z,99886.88
2022-09-28T20:41:00.678Z,99894.09
2022-09-28T20:46:24.173Z,99900.47
2022-09-28T20:51:47.309Z,99903.47
2022-09-28T20:57:18.266Z,99885.75
2022-09-28T21:02:41.367Z,99907.94
2022-09-28T21:08:04.509Z,99910.44
2022-09-28T21:13:28.895Z,99907.16
2022-09-28T21:18:51.967Z,99905.47
2022-09-28T21:24:15.069Z,99916.75
2022-09-28T21:29:39.526Z,99919.47
2022-09-28T21:35:02.591Z,99915.63
2022-09-28T21:40:25.719Z,99901.25
2022-09-28T21:45:51.989Z,99921.63
2022-09-28T21:51:15.667Z,99907.00
2022-09-28T21:56:38.684Z,99926.03
2022-09-28T22:02:05.529Z,99926.41
2022-09-28T22:07:28.577Z,99929.88
2022-09-28T22:12:51.644Z,99928.41
2022-09-28T22:18:16.056Z,99923.50
2022-09-28T22:23:39.586Z,99939.22
2022-09-28T22:29:04.557Z,99943.50
2022-09-28T22:34:30.773Z,99932.56
2022-09-28T22:39:54.000Z,99944.44
2022-09-28T22:45:17.073Z,99952.31
2022-09-28T22:50:48.938Z,99945.59
2022-09-28T22:56:18.218Z,99957.81
2022-09-28T23:01:42.006Z,99957.94
2022-09-28T23:07:06.431Z,99955.41
2022-09-28T23:12:30.445Z,99963.34
2022-09-28T23:17:53.722Z,99956.75
2022-09-28T23:23:18.131Z,99949.19
2022-09-28T23:28:41.531Z,99955.13
2022-09-28T23:34:06.404Z,99955.84
2022-09-28T23:39:30.806Z,99961.25
2022-09-28T23:44:53.910Z,99946.69
2022-09-28T23:50:17.063Z,99963.09
2022-09-28T23:55:42.903Z,99955.19
